Terminal Aerodrome Forecast
Issued by NWS

Home | Current Version | Previous Version | Text Only | Print | Product List | Glossary On
Versions: 1 2 3 4 5 6 7 8 9 10 11 12 13 14 15
617
FTAK31 PAJN 231724
TAFAGY
TAF
PAGY 231724Z 2318/2418 04007KT 6SM -SN BKN030 OVC045
      TEMPO 2318/2322 2SM -SN BKN020 OVC030
     FM240000 20010KT P6SM -SN SCT012 BKN025 OVC050
     FM240600 20015G25KT P6SM VCSH OVC050
      AMD LTD TO CLD VIS AND WIND=

USA.gov is the U.S. government's official web portal to all federal, state and local government web resources and services.